Hauptseite
METAR-TAF:

METAR-TAF

Flughäfen :

Bohrplattform Norsk Hydro

Oseberg, Norwegen

Breite: 60-29-29N, Länge: 2-49-32E, Höhe: 158 m

Beobachtung

Neuester Wetterbericht von vor 49 Minuten, um 20:50 UTC
Wind 23 kt aus Süd
Temperatur 16°C
Luftfeuchtigkeit 88%
Luftdruck 1013 hPa
Sichtweite: 9000 m

METAR: ENOA 162050Z 18023KT 9000 NSC 16/14 Q1013 W///S3

Zeit: 23:39 (21:39 UTC)

Prognose

Gültige Prognose vom 16 um 21 UTC bis 17 um 21 UTC
Wind 25 kt aus Süd
Sichtweite: 9000 m
Leicht bewölkt in der Höhe von 1000 ft
Übergehend zu
vom 17 um 09 UTC bis 17 um 12 UTC
Wind 15 kt aus Süd/Südost

TAF: ENOA 1621/1721 17025KT 9000 FEW010 BECMG 1709/1712 16015KT

Wetterbeobachtungen und Prognosen von mehr als 4000 Flughäfen (METAR und TAF Bericht).

Die verfügbaren Stationen werden durch gelbe und rote Markierungen auf der Karte dargestellt.

Führen Sie die Maus auf sie, um den Namen der Station zu sehen.

Darauf klicken, um die Beobachtung von Wetterbeobachtungen und Prognosen zu sehen.

Um die Karte zu ändern : klicken Sie auf den grünen Tasten mit einem schwarzen Kreuz Zum Vergrößern, auf den grünen Button mit einem Gedankenstrich zu verkleinern, oder auf die grünen Pfeile für benachbarte Karten.


METAR-TAF: